Time;durP1;ratioP1;P1;durP2;ratioP2;P2;SDS_P1;SDS_P2;PMS_P1;PMS_P2;Temp;Humidity;BMP_temperature;BMP_pressure;BME280_temperature;BME280_humidity;BME280_pressure;Samples;Min_cycle;Max_cycle;Signal;HPM_P1;HPM_P2
2022/10/30 00:04:40;;;;;;;0.65;0.50;;;;;;;19.32;64.17;97099.56;10566170;28;20024;-28
2022/10/30 00:09:41;;;;;;;1.40;0.83;;;;;;;19.27;64.10;97095.31;10570111;28;20405;-29
2022/10/30 00:14:41;;;;;;;1.13;0.80;;;;;;;19.31;64.00;97102.09;10566603;28;20023;-29
2022/10/30 00:19:41;;;;;;;0.83;0.67;;;;;;;19.30;64.08;97095.31;10568327;28;20040;-28
2022/10/30 00:24:42;;;;;;;0.77;0.77;;;;;;;19.30;63.91;97102.94;10572625;28;20275;-28
2022/10/30 00:29:42;;;;;;;0.90;0.80;;;;;;;19.38;66.04;97099.59;10562372;28;20027;-29
2022/10/30 00:34:43;;;;;;;0.90;0.77;;;;;;;19.51;66.67;97103.84;10545854;28;20032;-29
2022/10/30 00:39:43;;;;;;;0.90;0.60;;;;;;;19.52;65.06;97084.38;10545778;28;20020;-29
2022/10/30 00:44:47;;;;;;;0.57;0.57;;;;;;;19.40;64.08;97089.41;10549092;28;20297;-28
2022/10/30 00:49:52;;;;;;;0.50;0.45;;;;;;;19.32;63.74;97086.00;10546954;28;20633;-29
2022/10/30 00:54:54;;;;;;;0.57;0.50;;;;;;;19.30;64.08;97078.41;10562763;28;20059;-29
2022/10/30 00:59:55;;;;;;;1.10;0.50;;;;;;;19.32;64.19;97069.09;10565987;28;20483;-29
2022/10/30 01:04:55;;;;;;;0.85;0.70;;;;;;;19.32;63.91;97070.78;10563112;28;20086;-29
2022/10/30 01:09:56;;;;;;;0.80;0.60;;;;;;;19.33;63.98;97072.50;10568071;28;20094;-30
2022/10/30 01:14:59;;;;;;;0.98;0.73;;;;;;;19.31;63.80;97071.63;10540005;28;20492;-28
2022/10/30 01:20:27;;;;;;;1.00;0.60;;;;;;;19.30;63.83;97059.78;10537313;28;20036;-29
2022/10/30 01:25:53;;;;;;;1.27;0.60;;;;;;;19.37;66.36;97058.94;10546667;28;20039;-29
2022/10/30 01:31:13;;;;;;;0.60;0.57;;;;;;;19.50;65.80;97055.59;10546473;28;20035;-29
2022/10/30 01:36:41;;;;;;;0.60;0.60;;;;;;;19.47;64.59;97048.81;10562225;28;20031;-29
2022/10/30 01:41:42;;;;;;;0.65;0.60;;;;;;;19.42;63.96;97052.19;10555096;28;20063;-29
2022/10/30 01:47:08;;;;;;;1.00;0.93;;;;;;;19.32;63.80;97045.38;10540645;28;20036;-31
2022/10/30 01:52:25;;;;;;;;;;;;;;;19.31;63.94;97044.56;10542615;28;20551;-29
2022/10/30 01:57:40;;;;;;;1.17;0.73;;;;;;;19.30;63.93;97036.94;10547412;28;19915;-29
2022/10/30 02:02:43;;;;;;;0.65;0.60;;;;;;;19.30;64.00;97036.94;10544538;28;20036;-29
2022/10/30 02:07:45;;;;;;;1.02;0.73;;;;;;;19.29;63.94;97038.63;10540563;28;20024;-29
2022/10/30 02:12:47;;;;;;;0.40;0.40;;;;;;;19.30;64.06;97035.25;10546117;28;20038;-30
2022/10/30 02:17:47;;;;;;;0.40;0.40;;;;;;;19.29;63.69;97031.03;10561569;28;20389;-29
2022/10/30 02:22:49;;;;;;;0.73;0.60;;;;;;;19.34;66.07;97024.25;10541578;28;20019;-29
2022/10/30 02:27:49;;;;;;;0.93;0.63;;;;;;;19.49;67.08;97034.44;10542721;28;20031;-28
2022/10/30 02:32:50;;;;;;;0.52;0.52;;;;;;;19.53;65.66;97025.13;10540469;28;20031;-30
2022/10/30 02:37:50;;;;;;;0.50;0.47;;;;;;;19.42;64.03;97016.66;10540391;28;20490;-28
2022/10/30 02:42:52;;;;;;;0.50;0.50;;;;;;;19.33;63.97;97022.56;10558116;28;20035;-28
2022/10/30 02:47:52;;;;;;;0.88;0.43;;;;;;;19.28;63.81;97019.19;10544206;28;20278;-29
2022/10/30 02:52:53;;;;;;;0.70;0.50;;;;;;;19.32;63.88;97022.53;10539944;28;20054;-28
2022/10/30 02:57:53;;;;;;;0.77;0.75;;;;;;;19.32;63.96;97014.94;10563834;28;20032;-28
2022/10/30 03:02:55;;;;;;;0.73;0.50;;;;;;;19.31;64.20;97029.31;10542483;28;20073;-29
2022/10/30 03:07:55;;;;;;;0.45;0.35;;;;;;;19.30;63.88;97017.47;10539146;28;20031;-30
2022/10/30 03:12:57;;;;;;;1.48;0.70;;;;;;;19.28;63.75;97014.09;10562615;28;20028;-28
2022/10/30 03:17:57;;;;;;;0.73;0.40;;;;;;;19.27;63.27;97016.63;10555201;28;20032;-30
2022/10/30 03:22:58;;;;;;;0.90;0.60;;;;;;;19.45;67.00;97016.66;10539562;28;20031;-29
2022/10/30 03:27:59;;;;;;;0.82;0.70;;;;;;;19.52;66.38;97021.72;10555966;28;20066;-28
2022/10/30 03:33:01;;;;;;;0.75;0.70;;;;;;;19.45;64.16;97001.41;10562808;28;20027;-29
2022/10/30 03:38:01;;;;;;;0.40;0.30;;;;;;;19.37;63.88;97019.19;10540927;28;20501;-29
2022/10/30 03:43:02;;;;;;;1.50;0.37;;;;;;;19.29;64.05;97025.09;10559670;28;20109;-29
2022/10/30 03:48:04;;;;;;;0.60;0.50;;;;;;;19.31;63.89;97019.16;10553654;28;20069;-29
2022/10/30 03:53:05;;;;;;;0.43;0.40;;;;;;;19.28;63.83;97018.31;10546137;28;20023;-29
2022/10/30 03:58:07;;;;;;;1.30;0.67;;;;;;;19.30;63.99;97024.25;10542382;28;20020;-28
2022/10/30 04:03:09;;;;;;;0.68;0.60;;;;;;;19.25;63.72;97013.25;10539590;28;20299;-29
2022/10/30 04:08:13;;;;;;;0.63;0.60;;;;;;;19.30;63.84;97026.78;10537857;28;20289;-29
2022/10/30 04:13:16;;;;;;;0.50;0.50;;;;;;;19.30;63.67;97029.31;10541512;28;20085;-29
2022/10/30 04:18:22;;;;;;;0.52;0.47;;;;;;;19.32;65.58;97020.00;10553846;28;20076;-29
2022/10/30 04:23:22;;;;;;;0.73;0.43;;;;;;;19.49;66.49;97019.19;10568086;28;20034;-29
2022/10/30 04:28:23;;;;;;;0.55;0.52;;;;;;;19.53;65.16;97020.03;10544486;28;20028;-29
2022/10/30 04:33:24;;;;;;;0.35;0.35;;;;;;;19.43;63.81;97020.88;10551316;28;20043;-29
2022/10/30 04:38:24;;;;;;;0.90;0.70;;;;;;;19.32;63.67;97015.78;10562193;28;20040;-30
2022/10/30 04:43:25;;;;;;;0.40;0.40;;;;;;;19.32;63.78;97014.94;10548381;28;20028;-29
2022/10/30 04:48:26;;;;;;;0.63;0.50;;;;;;;19.29;63.81;97009.84;10546619;28;20032;-28
2022/10/30 04:53:27;;;;;;;0.80;0.50;;;;;;;19.30;63.92;97006.47;10544467;28;20027;-30
2022/10/30 04:58:37;;;;;;;0.82;0.60;;;;;;;19.30;63.69;97001.38;10552519;28;20164;-29
2022/10/30 05:03:39;;;;;;;1.33;0.77;;;;;;;19.30;63.76;96998.84;10546465;28;20031;-29
2022/10/30 05:08:46;;;;;;;0.38;0.38;;;;;;;19.29;63.73;97000.56;10543322;28;20046;-28
2022/10/30 05:13:58;;;;;;;0.60;0.38;;;;;;;19.28;63.77;96998.88;10545406;28;21476;-29
2022/10/30 05:18:59;;;;;;;0.55;0.43;;;;;;;19.42;66.61;97001.41;10550262;28;20027;-30
2022/10/30 05:24:00;;;;;;;0.80;0.50;;;;;;;19.52;66.42;96992.94;10541562;28;20401;-30
2022/10/30 05:29:03;;;;;;;0.65;0.50;;;;;;;19.47;64.31;96989.56;10541939;28;20035;-29
2022/10/30 05:34:03;;;;;;;0.50;0.50;;;;;;;19.35;63.75;96984.47;10543841;28;20031;-30
2022/10/30 05:39:04;;;;;;;0.55;0.40;;;;;;;19.31;63.68;96985.31;10546678;28;20031;-29
2022/10/30 05:44:09;;;;;;;0.45;0.45;;;;;;;19.31;63.88;96986.16;10547504;28;20094;-29
2022/10/30 05:49:13;;;;;;;0.30;0.30;;;;;;;19.31;64.10;96988.72;10546972;28;20098;-29
2022/10/30 05:54:13;;;;;;;0.93;0.63;;;;;;;19.32;63.92;96992.94;10544692;28;20030;-29
2022/10/30 05:59:27;;;;;;;0.47;0.47;;;;;;;19.29;63.79;96985.31;10566560;28;20085;-29
2022/10/30 06:04:28;;;;;;;0.65;0.50;;;;;;;19.29;63.90;96995.47;10563424;28;20083;-29
2022/10/30 06:09:29;;;;;;;0.45;0.40;;;;;;;19.29;63.78;96998.03;10543015;28;20561;-28
2022/10/30 06:14:32;;;;;;;0.43;0.40;;;;;;;19.34;65.52;96988.69;10558337;28;20531;-30
2022/10/30 06:19:32;;;;;;;0.70;0.70;;;;;;;19.47;66.16;96998.03;10557380;28;20028;-29
2022/10/30 06:25:00;;;;;;;0.75;0.52;;;;;;;19.52;65.22;97000.56;10542732;28;20289;-29
2022/10/30 06:30:20;;;;;;;0.57;0.57;;;;;;;19.39;63.90;96996.31;10542525;28;20035;-28
2022/10/30 06:35:20;;;;;;;0.38;0.30;;;;;;;19.31;63.50;97006.47;10540329;28;20057;-29
2022/10/30 06:40:22;;;;;;;0.52;0.43;;;;;;;19.31;63.80;97013.22;10541465;28;20076;-29
2022/10/30 06:45:41;;;;;;;0.68;0.43;;;;;;;19.31;63.66;97018.31;10564630;28;20043;-30
2022/10/30 06:50:41;;;;;;;0.70;0.63;;;;;;;19.30;63.76;97022.56;10540681;28;20024;-29
2022/10/30 06:55:42;;;;;;;0.60;0.40;;;;;;;19.29;63.89;97020.88;10541104;28;20659;-29
2022/10/30 07:01:00;;;;;;;0.40;0.40;;;;;;;19.29;63.98;97020.00;10537993;28;20035;-29
2022/10/30 07:06:20;;;;;;;0.50;0.30;;;;;;;19.29;63.86;97022.53;10538401;28;20507;-29
2022/10/30 07:11:21;;;;;;;0.93;0.50;;;;;;;19.29;63.77;97027.63;10563484;28;20024;-29
2022/10/30 07:16:36;;;;;;;1.05;0.60;;;;;;;19.41;66.84;97020.03;10564727;28;20024;-29
2022/10/30 07:21:36;;;;;;;0.73;0.40;;;;;;;19.51;66.56;97021.75;10539024;28;20036;-29
2022/10/30 07:26:39;;;;;;;0.63;0.40;;;;;;;19.46;63.95;97029.34;10540618;28;20243;-29
2022/10/30 07:31:57;;;;;;;0.52;0.50;;;;;;;19.33;63.51;97026.81;10537423;28;20032;-29
2022/10/30 07:37:04;;;;;;;0.55;0.55;;;;;;;19.30;63.68;97022.56;10534411;28;20111;-29
2022/10/30 07:42:22;;;;;;;0.50;0.40;;;;;;;19.29;63.71;97020.88;10537894;28;20036;-30
2022/10/30 07:47:46;;;;;;;0.40;0.40;;;;;;;19.29;63.76;97025.94;10537825;28;20028;-31
2022/10/30 07:53:01;;;;;;;0.35;0.32;;;;;;;19.30;63.54;97034.38;10553881;28;20063;-29
2022/10/30 07:58:05;;;;;;;0.77;0.55;;;;;;;19.29;63.68;97025.94;10551684;28;20055;-29
2022/10/30 08:03:24;;;;;;;1.58;0.30;;;;;;;19.30;63.90;97029.31;10564878;28;20036;-29
2022/10/30 08:08:31;;;;;;;0.68;0.47;;;;;;;19.28;63.83;97026.78;10547599;28;20193;-29
2022/10/30 08:13:43;;;;;;;0.50;0.40;;;;;;;19.36;65.69;97026.78;10542857;28;20570;-28
2022/10/30 08:18:43;;;;;;;0.70;0.40;;;;;;;19.48;66.33;97032.72;10553105;28;20032;-28
2022/10/30 08:23:44;;;;;;;0.60;0.32;;;;;;;19.45;64.93;97016.66;10547605;28;20289;-29
2022/10/30 08:28:48;;;;;;;0.45;0.40;;;;;;;19.39;63.71;97026.78;10536618;28;20302;-29
2022/10/30 08:33:49;;;;;;;0.77;0.30;;;;;;;19.30;63.51;97025.09;10549774;28;20020;-29
2022/10/30 08:39:10;;;;;;;0.57;0.30;;;;;;;19.30;63.62;97021.69;10563845;28;20043;-29
2022/10/30 08:44:29;;;;;;;0.88;0.80;;;;;;;19.29;63.45;97020.88;10560087;28;20043;-31
2022/10/30 08:49:58;;;;;;;1.00;0.77;;;;;;;19.28;63.68;97019.19;10540749;28;20043;-29
2022/10/30 08:55:02;;;;;;;0.60;0.60;;;;;;;19.29;63.74;97014.94;10547418;28;20072;-28
2022/10/30 09:00:05;;;;;;;0.40;0.40;;;;;;;19.27;63.69;97022.53;10556001;28;20240;-29
2022/10/30 09:05:26;;;;;;;0.32;0.32;;;;;;;19.28;63.64;97015.78;10564214;28;20031;-29
2022/10/30 09:10:46;;;;;;;0.50;0.38;;;;;;;19.28;63.59;97018.31;10521565;28;20051;-29
2022/10/30 09:15:47;;;;;;;0.50;0.50;;;;;;;19.43;66.25;97018.34;10567897;28;20020;-28
2022/10/30 09:20:48;;;;;;;0.68;0.43;;;;;;;19.51;66.39;97011.59;10547646;28;20035;-30
2022/10/30 09:25:48;;;;;;;0.30;0.30;;;;;;;19.48;64.00;96998.88;10553641;28;20367;-29
2022/10/30 09:31:09;;;;;;;0.68;0.52;;;;;;;19.34;63.58;97008.19;10544760;28;20024;-28
2022/10/30 09:36:11;;;;;;;0.38;0.32;;;;;;;19.30;63.93;97006.47;10541886;28;20391;-31
2022/10/30 09:41:34;;;;;;;0.53;0.53;;;;;;;19.30;63.68;97007.31;10550864;28;20031;-28
2022/10/30 09:46:55;;;;;;;0.30;0.30;;;;;;;19.30;63.84;97022.56;10547329;28;20036;-28
2022/10/30 09:52:14;;;;;;;0.40;0.40;;;;;;;19.30;63.94;97014.94;10544274;28;20275;-28
2022/10/30 09:57:35;;;;;;;1.25;0.60;;;;;;;19.24;64.06;97003.94;10554373;28;20023;-29
2022/10/30 10:02:51;;;;;;;0.93;0.50;;;;;;;19.28;63.82;97008.16;10569747;28;20217;-30
2022/10/30 10:07:56;;;;;;;0.50;0.50;;;;;;;19.29;63.59;97009.84;10561135;28;20118;-29
2022/10/30 10:13:26;;;;;;;0.30;0.22;;;;;;;19.34;65.71;97021.72;10547550;28;20034;-29
2022/10/30 10:18:42;;;;;;;0.63;0.40;;;;;;;19.48;66.17;97024.25;10563592;28;20039;-28
2022/10/30 10:23:47;;;;;;;0.30;0.30;;;;;;;19.50;64.86;97015.81;10567117;28;20059;-29
2022/10/30 10:29:26;;;;;;;1.33;0.63;;;;;;;19.36;63.79;97012.41;10569134;28;20262;-29
2022/10/30 10:34:48;;;;;;;0.38;0.38;;;;;;;19.30;64.00;97011.53;10552059;28;20067;-29
2022/10/30 10:40:07;;;;;;;0.95;0.88;;;;;;;19.31;63.89;97013.22;10563560;28;20122;-29
2022/10/30 10:45:27;;;;;;;0.55;0.25;;;;;;;19.31;63.91;97015.78;10560723;28;20127;-28
2022/10/30 10:50:32;;;;;;;0.25;0.25;;;;;;;19.30;63.96;97009.00;10561587;28;20521;-28
2022/10/30 10:55:35;;;;;;;0.25;0.25;;;;;;;19.29;63.84;97009.84;10543483;28;20027;-32
2022/10/30 11:00:36;;;;;;;0.30;0.20;;;;;;;19.29;63.96;97009.84;10559651;28;20032;-28
2022/10/30 11:05:50;;;;;;;0.70;0.32;;;;;;;19.28;63.92;97014.09;10561956;28;20077;-29
2022/10/30 11:10:58;;;;;;;0.60;0.60;;;;;;;19.28;64.01;97016.63;10565011;28;20538;-28
2022/10/30 11:16:05;;;;;;;0.50;0.50;;;;;;;19.45;66.88;97012.44;10553653;28;20503;-28
2022/10/30 11:21:15;;;;;;;0.60;0.57;;;;;;;19.53;66.13;97012.41;10559285;28;20031;-29
2022/10/30 11:26:21;;;;;;;0.40;0.40;;;;;;;19.49;64.33;97013.28;10560729;28;20092;-29
2022/10/30 11:31:26;;;;;;;0.60;0.55;;;;;;;19.35;63.87;97017.50;10556669;28;20119;-29
2022/10/30 11:36:27;;;;;;;0.45;0.28;;;;;;;19.30;64.07;97016.63;10557598;28;20044;-28
2022/10/30 11:41:27;;;;;;;0.50;0.30;;;;;;;19.31;63.91;97018.31;10560190;28;20509;-29
2022/10/30 11:46:28;;;;;;;1.03;0.57;;;;;;;19.31;64.02;97013.22;10556547;28;20543;-29
2022/10/30 11:51:36;;;;;;;0.30;0.30;;;;;;;19.30;64.05;97011.53;10561322;28;20288;-31
2022/10/30 11:56:36;;;;;;;0.50;0.50;;;;;;;19.30;63.91;97011.53;10556276;28;20042;-30
2022/10/30 12:01:37;;;;;;;0.43;0.40;;;;;;;19.29;64.09;97004.78;10560859;28;20357;-29
2022/10/30 12:06:38;;;;;;;0.30;0.30;;;;;;;19.30;64.14;97016.63;10554937;28;20289;-29
2022/10/30 12:11:42;;;;;;;0.53;0.30;;;;;;;19.28;63.99;97008.16;10554343;28;20032;-30
2022/10/30 12:16:48;;;;;;;0.50;0.40;;;;;;;19.45;67.03;97003.94;10552553;28;20270;-29
2022/10/30 12:21:50;;;;;;;;;;;;;;;19.52;67.12;97001.41;10564466;28;20501;-29
2022/10/30 12:26:53;;;;;;;0.43;0.30;;;;;;;19.48;64.39;97001.41;10559769;28;19912;-30
2022/10/30 12:31:59;;;;;;;0.32;0.32;;;;;;;19.34;63.71;96995.50;10556152;28;20071;-30
2022/10/30 12:37:17;;;;;;;0.20;0.20;;;;;;;19.31;63.87;96998.00;10560752;28;20126;-29
2022/10/30 12:42:21;;;;;;;0.40;0.40;;;;;;;19.31;63.87;96998.00;10565359;28;20044;-29
2022/10/30 12:47:37;;;;;;;0.25;0.25;;;;;;;19.30;63.89;96988.69;10566395;28;20547;-28
2022/10/30 12:52:58;;;;;;;0.50;0.40;;;;;;;19.30;64.06;96981.06;10560070;28;20056;-29
2022/10/30 12:58:17;;;;;;;0.30;0.30;;;;;;;19.30;63.91;96988.69;10569428;28;20118;-28
2022/10/30 13:03:31;;;;;;;0.28;0.28;;;;;;;19.29;64.02;96979.38;10565738;28;20039;-29
2022/10/30 13:08:38;;;;;;;0.20;0.20;;;;;;;19.28;63.81;96973.47;10566073;28;20042;-28
2022/10/30 13:13:47;;;;;;;0.43;0.30;;;;;;;19.34;65.98;96965.03;10567002;28;20028;-28
2022/10/30 13:18:56;;;;;;;0.65;0.47;;;;;;;19.49;67.18;96967.56;10560516;28;20039;-29
2022/10/30 13:24:10;;;;;;;0.30;0.30;;;;;;;19.53;65.25;96966.72;10568043;28;20042;-28
2022/10/30 13:29:40;;;;;;;0.20;0.20;;;;;;;19.39;63.69;96970.94;10564480;28;20024;-29
2022/10/30 13:34:54;;;;;;;0.40;0.30;;;;;;;19.32;63.88;96969.22;10562086;28;20157;-29
2022/10/30 13:40:10;;;;;;;0.28;0.28;;;;;;;19.32;63.95;96970.09;10563177;28;20072;-30
2022/10/30 13:45:36;;;;;;;0.30;0.30;;;;;;;19.32;63.90;96969.22;10560512;28;20042;-29
2022/10/30 13:50:46;;;;;;;0.40;0.40;;;;;;;19.30;63.75;96976.88;10559614;28;20040;-29
2022/10/30 13:55:48;;;;;;;0.30;0.20;;;;;;;19.31;63.94;96972.63;10563144;28;20059;-29
2022/10/30 14:00:52;;;;;;;0.30;0.30;;;;;;;19.30;63.89;96973.47;10562721;28;20039;-28
2022/10/30 14:06:01;;;;;;;0.32;0.30;;;;;;;19.25;63.72;96959.94;10563650;28;20036;-28
2022/10/30 14:11:05;;;;;;;0.40;0.40;;;;;;;19.30;63.90;96973.47;10559162;28;20027;-29
2022/10/30 14:16:06;;;;;;;0.30;0.30;;;;;;;19.43;65.56;96968.38;10558246;28;20035;-29
2022/10/30 14:21:30;;;;;;;0.32;0.32;;;;;;;19.54;67.14;96965.84;10562168;28;20533;-29
2022/10/30 14:26:31;;;;;;;0.20;0.20;;;;;;;19.51;64.42;96955.72;10564191;28;20036;-29
2022/10/30 14:31:34;;;;;;;0.40;0.40;;;;;;;19.37;63.67;96963.34;10560587;28;20469;-29
2022/10/30 14:36:37;;;;;;;0.47;0.30;;;;;;;19.32;63.81;96967.56;10559842;28;20043;-28
2022/10/30 14:41:44;;;;;;;0.47;0.40;;;;;;;19.32;63.79;96964.16;10562107;28;20039;-29
2022/10/30 14:47:02;;;;;;;;;;;;;;;19.32;63.80;96964.16;10559834;28;20036;-28
2022/10/30 14:52:14;;;;;;;0.20;0.20;;;;;;;19.30;64.03;96960.78;10557722;28;19950;-29
2022/10/30 14:57:41;;;;;;;0.20;0.20;;;;;;;19.30;64.06;96961.63;10558246;28;20077;-30
2022/10/30 15:03:04;;;;;;;;;;;;;;;19.31;63.85;96965.00;10561429;28;20414;-28
2022/10/30 15:08:16;;;;;;;0.57;0.30;;;;;;;19.28;63.96;96963.34;10559638;28;19924;-28
2022/10/30 15:13:21;;;;;;;0.40;0.20;;;;;;;19.29;64.65;96957.41;10558347;28;20038;-29
2022/10/30 15:18:22;;;;;;;0.40;0.40;;;;;;;19.49;67.45;96962.50;10558092;28;20425;-28
2022/10/30 15:23:29;;;;;;;0.50;0.20;;;;;;;19.55;66.16;96972.63;10557893;28;20040;-29
2022/10/30 15:28:33;;;;;;;0.25;0.22;;;;;;;19.48;64.39;96971.78;10562472;28;20111;-29
2022/10/30 15:33:36;;;;;;;0.90;0.20;;;;;;;19.35;63.65;96969.25;10559288;28;20062;-29
2022/10/30 15:38:37;;;;;;;0.20;0.20;;;;;;;19.31;64.09;96970.94;10554547;28;20540;-29
2022/10/30 15:43:41;;;;;;;0.30;0.30;;;;;;;19.30;63.87;96965.84;10557755;28;20059;-29
2022/10/30 15:48:46;;;;;;;0.30;0.30;;;;;;;19.30;64.03;96955.69;10544967;28;20062;-31
2022/10/30 15:53:54;;;;;;;0.30;0.30;;;;;;;19.32;63.97;96969.22;10558379;28;20569;-28
2022/10/30 15:58:59;;;;;;;0.30;0.25;;;;;;;19.30;63.89;96961.63;10561031;28;20032;-29
2022/10/30 16:04:00;;;;;;;0.70;0.60;;;;;;;19.30;64.10;96971.78;10559898;28;20105;-29
2022/10/30 16:09:02;;;;;;;0.30;0.20;;;;;;;19.30;63.96;96970.91;10559551;28;20133;-29
2022/10/30 16:14:12;;;;;;;0.40;0.30;;;;;;;19.31;64.76;96973.47;10569739;28;20024;-29
2022/10/30 16:19:24;;;;;;;0.50;0.40;;;;;;;19.50;67.46;96980.25;10564441;28;20023;-29
2022/10/30 16:24:33;;;;;;;0.40;0.30;;;;;;;19.53;65.99;96974.31;10563856;28;20123;-28
2022/10/30 16:29:34;;;;;;;0.22;0.22;;;;;;;19.45;63.54;96981.09;10554351;28;20054;-28
2022/10/30 16:34:36;;;;;;;0.40;0.30;;;;;;;19.33;63.78;96989.56;10559695;28;20028;-28
2022/10/30 16:39:37;;;;;;;0.32;0.32;;;;;;;19.29;63.91;96989.53;10565953;28;20036;-29
2022/10/30 16:44:38;;;;;;;0.28;0.20;;;;;;;19.32;63.81;97004.78;10569181;28;20040;-30
2022/10/30 16:49:46;;;;;;;0.77;0.53;;;;;;;19.31;63.80;97003.94;10558813;28;20482;-29
2022/10/30 16:54:56;;;;;;;0.35;0.22;;;;;;;19.32;63.74;97015.78;10555933;28;20413;-29
2022/10/30 16:59:59;;;;;;;0.20;0.20;;;;;;;19.31;63.95;97018.31;10567527;28;20461;-29
2022/10/30 17:05:17;;;;;;;0.30;0.10;;;;;;;19.30;63.85;97021.69;10565040;28;20486;-29
2022/10/30 17:10:36;;;;;;;0.30;0.30;;;;;;;19.31;63.71;97018.31;10561524;28;20123;-29
2022/10/30 17:15:37;;;;;;;0.40;0.40;;;;;;;19.37;66.09;97028.47;10571551;28;20341;-30
2022/10/30 17:20:38;;;;;;;0.52;0.30;;;;;;;19.52;67.29;97028.50;10563929;28;20039;-30
2022/10/30 17:25:39;;;;;;;0.20;0.20;;;;;;;19.55;64.82;97038.66;10572169;28;20036;-29
2022/10/30 17:30:41;;;;;;;0.30;0.30;;;;;;;19.37;63.83;97041.19;10562535;28;20028;-28
2022/10/30 17:35:42;;;;;;;0.20;0.20;;;;;;;19.32;63.78;97047.94;10554316;28;20028;-30
2022/10/30 17:40:42;;;;;;;0.57;0.30;;;;;;;19.34;63.84;97058.97;10562122;28;20040;-29
2022/10/30 17:45:43;;;;;;;0.32;0.32;;;;;;;19.32;63.78;97061.47;10573054;28;20118;-28
2022/10/30 17:50:44;;;;;;;0.50;0.50;;;;;;;19.30;63.65;97069.94;10560050;28;20123;-29
2022/10/30 17:55:48;;;;;;;0.30;0.30;;;;;;;19.31;63.54;97069.09;10563521;28;20030;-30
2022/10/30 18:00:48;;;;;;;0.50;0.30;;;;;;;19.31;63.64;97074.16;10564342;28;20296;-29
2022/10/30 18:05:49;;;;;;;0.28;0.20;;;;;;;19.30;63.50;97072.47;10564198;28;20505;-27
2022/10/30 18:10:50;;;;;;;0.35;0.30;;;;;;;19.24;63.59;97075.84;10559997;28;20513;-29
2022/10/30 18:15:57;;;;;;;0.20;0.20;;;;;;;19.41;65.59;97083.53;10563467;28;20054;-29
2022/10/30 18:20:57;;;;;;;0.30;0.30;;;;;;;19.53;67.54;97097.09;10555390;28;21147;-29
2022/10/30 18:25:57;;;;;;;0.30;0.30;;;;;;;19.53;64.02;97086.06;10565461;28;20040;-29
2022/10/30 18:30:59;;;;;;;0.30;0.30;;;;;;;19.41;63.23;97096.22;10555474;28;20039;-29
2022/10/30 18:36:00;;;;;;;0.20;0.20;;;;;;;19.32;63.82;97096.16;10562531;28;20027;-30
2022/10/30 18:41:01;;;;;;;0.93;0.40;;;;;;;19.30;63.22;97087.72;10564423;28;20035;-29
2022/10/30 18:46:02;;;;;;;0.40;0.10;;;;;;;19.31;63.36;97094.47;10567003;28;20535;-29
2022/10/30 18:51:04;;;;;;;0.10;0.10;;;;;;;19.27;63.27;97082.63;10557189;28;20045;-28
2022/10/30 18:56:08;;;;;;;0.50;0.50;;;;;;;19.32;63.27;97091.09;10562011;28;20022;-29
2022/10/30 19:01:08;;;;;;;0.40;0.30;;;;;;;19.30;63.23;97087.72;10562843;28;20034;-28
2022/10/30 19:06:11;;;;;;;0.20;0.20;;;;;;;19.30;63.11;97093.66;10558507;28;20400;-28
2022/10/30 19:11:13;;;;;;;0.15;0.15;;;;;;;19.31;63.28;97097.00;10562802;28;20496;-29
2022/10/30 19:16:16;;;;;;;0.38;0.38;;;;;;;19.38;65.33;97106.34;10558237;28;20485;-28
2022/10/30 19:21:24;;;;;;;0.30;0.30;;;;;;;19.51;67.04;97106.38;10551240;28;20055;-28
2022/10/30 19:26:25;;;;;;;0.25;0.25;;;;;;;19.53;64.67;97102.16;10562071;28;20039;-29
2022/10/30 19:31:25;;;;;;;0.35;0.32;;;;;;;19.40;63.56;97102.97;10556453;28;20040;-29
2022/10/30 19:36:30;;;;;;;0.20;0.20;;;;;;;19.35;63.16;97108.88;10554345;28;20400;-29
2022/10/30 19:41:31;;;;;;;0.20;0.20;;;;;;;19.35;63.32;97114.78;10558988;28;20067;-28
2022/10/30 19:46:32;;;;;;;0.40;0.30;;;;;;;19.33;63.12;97113.13;10563045;28;20127;-29
2022/10/30 19:51:32;;;;;;;0.38;0.35;;;;;;;19.31;63.07;97107.16;10563155;28;20478;-28
2022/10/30 19:56:32;;;;;;;0.20;0.20;;;;;;;19.31;63.20;97109.72;10567317;28;20032;-29
2022/10/30 20:01:33;;;;;;;0.30;0.20;;;;;;;19.27;63.14;97105.47;10567550;28;20035;-29
2022/10/30 20:06:33;;;;;;;0.30;0.30;;;;;;;19.32;62.99;97116.47;10570020;28;20032;-29
2022/10/30 20:11:33;;;;;;;0.40;0.40;;;;;;;19.32;62.80;97113.94;10566606;28;20043;-29
2022/10/30 20:16:34;;;;;;;0.30;0.30;;;;;;;19.41;65.75;97121.63;10571097;28;20060;-29
2022/10/30 20:21:35;;;;;;;0.50;0.30;;;;;;;19.52;66.54;97128.38;10563997;28;20441;-29
2022/10/30 20:26:37;;;;;;;0.43;0.35;;;;;;;19.56;64.41;97121.63;10564276;28;20038;-28
2022/10/30 20:31:37;;;;;;;0.30;0.20;;;;;;;19.41;63.05;97130.06;10565192;28;20030;-28
2022/10/30 20:36:37;;;;;;;0.23;0.20;;;;;;;19.34;63.08;97124.97;10563217;28;20038;-29
2022/10/30 20:41:40;;;;;;;0.30;0.20;;;;;;;19.33;63.06;97120.75;10568486;28;20020;-29
2022/10/30 20:46:40;;;;;;;0.85;0.40;;;;;;;19.30;63.31;97118.16;10565595;28;20060;-29
2022/10/30 20:51:40;;;;;;;0.22;0.22;;;;;;;19.32;62.94;97126.63;10561650;28;20485;-29
2022/10/30 20:56:41;;;;;;;0.60;0.20;;;;;;;19.31;62.88;97130.88;10563849;28;20032;-29
2022/10/30 21:01:41;;;;;;;0.40;0.30;;;;;;;19.31;63.07;97132.56;10565251;28;20036;-29
2022/10/30 21:06:42;;;;;;;0.40;0.25;;;;;;;19.30;62.89;97130.88;10560861;28;20051;-29
2022/10/30 21:11:42;;;;;;;0.20;0.20;;;;;;;19.31;62.31;97130.00;10569697;28;20027;-29
2022/10/30 21:16:42;;;;;;;0.17;0.17;;;;;;;19.27;64.00;97123.25;10565885;28;20284;-30
2022/10/30 21:21:43;;;;;;;0.47;0.40;;;;;;;19.49;66.75;97133.47;10558197;28;20113;-30
2022/10/30 21:26:43;;;;;;;0.10;0.10;;;;;;;19.56;65.33;97141.94;10567370;28;20032;-29
2022/10/30 21:31:43;;;;;;;0.20;0.20;;;;;;;19.42;63.20;97128.38;10560500;28;20023;-29
2022/10/30 21:36:44;;;;;;;0.37;0.37;;;;;;;19.33;63.01;97130.91;10564587;28;20290;-30
2022/10/30 21:41:44;;;;;;;0.25;0.20;;;;;;;19.32;63.14;97129.16;10564753;28;20079;-29
2022/10/30 21:46:45;;;;;;;0.63;0.30;;;;;;;19.33;63.15;97134.25;10561877;28;20031;-28
2022/10/30 21:51:48;;;;;;;0.17;0.15;;;;;;;19.32;62.90;97126.63;10559638;28;20040;-30
2022/10/30 21:56:48;;;;;;;0.20;0.20;;;;;;;19.31;62.82;97124.94;10569061;28;20476;-28
2022/10/30 22:01:49;;;;;;;0.30;0.30;;;;;;;19.30;62.75;97126.66;10566491;28;20032;-29
2022/10/30 22:06:49;;;;;;;0.20;0.20;;;;;;;19.28;62.63;97114.78;10562363;28;20032;-28
2022/10/30 22:11:50;;;;;;;0.20;0.20;;;;;;;19.30;62.48;97121.56;10567969;28;20300;-29
2022/10/30 22:16:50;;;;;;;0.37;0.37;;;;;;;19.30;62.64;97126.66;10561651;28;20425;-29
2022/10/30 22:21:51;;;;;;;0.30;0.30;;;;;;;19.47;66.50;97121.59;10557250;28;20044;-29
2022/10/30 22:26:51;;;;;;;0.30;0.30;;;;;;;19.55;64.68;97119.94;10562861;28;20036;-29
2022/10/30 22:31:51;;;;;;;0.50;0.40;;;;;;;19.45;63.06;97115.69;10566886;28;20040;-29
2022/10/30 22:36:52;;;;;;;0.28;0.20;;;;;;;19.34;62.80;97123.25;10563450;28;20036;-29
2022/10/30 22:41:52;;;;;;;0.30;0.30;;;;;;;19.33;62.98;97115.66;10558353;28;20099;-29
2022/10/30 22:46:53;;;;;;;0.57;0.40;;;;;;;19.32;62.80;97116.47;10556762;28;20116;-30
2022/10/30 22:51:53;;;;;;;0.30;0.25;;;;;;;19.31;63.10;97120.72;10555292;28;20028;-28
2022/10/30 22:56:54;;;;;;;0.40;0.20;;;;;;;19.26;63.00;97112.22;10559280;28;20397;-29
2022/10/30 23:01:55;;;;;;;0.35;0.30;;;;;;;19.31;62.67;97119.88;10563601;28;20042;-28
2022/10/30 23:06:55;;;;;;;0.20;0.20;;;;;;;19.31;62.51;97119.88;10561114;28;20057;-29
2022/10/30 23:11:56;;;;;;;0.97;0.50;;;;;;;19.29;62.33;97111.41;10565011;28;20106;-28
2022/10/30 23:16:56;;;;;;;0.40;0.33;;;;;;;19.29;62.08;97111.41;10560641;28;20039;-29
2022/10/30 23:21:57;;;;;;;0.70;0.40;;;;;;;19.44;66.31;97114.00;10554246;28;20067;-29
2022/10/30 23:26:58;;;;;;;0.45;0.30;;;;;;;19.54;66.45;97108.06;10561815;28;20123;-30
2022/10/30 23:31:58;;;;;;;0.40;0.30;;;;;;;19.53;63.49;97112.34;10554001;28;20086;-28
2022/10/30 23:36:59;;;;;;;0.30;0.20;;;;;;;19.38;62.29;97108.88;10563331;28;20320;-28
2022/10/30 23:41:59;;;;;;;0.60;0.40;;;;;;;19.32;62.96;97109.72;10561416;28;20088;-30
2022/10/30 23:46:59;;;;;;;0.57;0.40;;;;;;;19.32;62.84;97111.41;10556650;28;20293;-28